createdAt,value
2022-11-28T00:03:29.872Z,3.35
2022-11-28T00:06:59.221Z,3.37
2022-11-28T00:09:52.981Z,3.38
2022-11-28T00:13:01.747Z,3.37
2022-11-28T00:15:51.196Z,3.37
2022-11-28T00:23:39.278Z,3.37
2022-11-28T00:24:23.134Z,3.31
2022-11-28T00:30:01.418Z,3.34
2022-11-28T00:35:03.455Z,3.36
2022-11-28T00:45:58.173Z,3.33
2022-11-28T00:54:06.662Z,3.35
2022-11-28T01:00:15.888Z,3.37
2022-11-28T01:26:27.846Z,3.42
2022-11-28T01:38:49.889Z,3.36
2022-11-28T01:43:50.230Z,3.35
2022-11-28T01:44:32.656Z,3.34
2022-11-28T01:46:00.415Z,3.36
2022-11-28T01:47:29.147Z,3.33
2022-11-28T01:50:55.574Z,3.33
2022-11-28T01:53:57.622Z,3.32
2022-11-28T01:58:58.978Z,3.32
2022-11-28T02:00:37.565Z,3.32
2022-11-28T02:03:59.318Z,3.30
2022-11-28T02:14:10.020Z,3.29
2022-11-28T02:17:33.488Z,3.31
2022-11-28T02:21:43.120Z,3.32
2022-11-28T02:24:51.806Z,3.30
2022-11-28T02:31:39.539Z,3.22
2022-11-28T02:44:29.218Z,3.19
2022-11-28T02:46:19.224Z,3.20
2022-11-28T02:54:12.576Z,3.17
2022-11-28T02:57:08.500Z,3.11
2022-11-28T03:00:43.423Z,3.06
2022-11-28T03:04:25.609Z,3.03
2022-11-28T03:08:37.540Z,3.00
2022-11-28T03:11:44.056Z,3.00
2022-11-28T03:15:47.596Z,3.01
2022-11-28T03:19:12.364Z,2.99
2022-11-28T03:21:59.272Z,3.00
2022-11-28T03:26:00.755Z,2.95
2022-11-28T03:37:31.918Z,2.94
2022-11-28T03:40:26.211Z,2.95
2022-11-28T03:43:27.460Z,2.96
2022-11-28T03:46:00.206Z,2.97
2022-11-28T03:48:40.325Z,2.98
2022-11-28T03:58:13.385Z,2.98
2022-11-28T04:00:12.554Z,3.00
2022-11-28T04:04:14.934Z,2.99
2022-11-28T04:07:15.951Z,2.97
2022-11-28T04:11:21.989Z,2.98
2022-11-28T04:18:52.160Z,2.95
2022-11-28T04:21:00.593Z,2.95
2022-11-28T04:27:27.458Z,2.95
2022-11-28T04:28:59.328Z,2.95
2022-11-28T04:35:31.307Z,2.91
2022-11-28T04:36:00.444Z,2.93
2022-11-28T04:37:47.484Z,2.89
2022-11-28T04:44:30.280Z,2.87
2022-11-28T04:45:47.316Z,2.86
2022-11-28T04:56:07.131Z,2.89
2022-11-28T04:59:35.212Z,2.86
2022-11-28T05:02:06.164Z,2.84
2022-11-28T05:04:59.145Z,2.82
2022-11-28T05:07:45.645Z,2.79
2022-11-28T05:10:54.780Z,2.74
2022-11-28T05:13:42.928Z,2.70
2022-11-28T05:16:13.988Z,2.69
2022-11-28T05:18:46.843Z,2.68
2022-11-28T05:21:34.158Z,2.67
2022-11-28T05:24:16.474Z,2.67
2022-11-28T05:27:31.330Z,2.66
2022-11-28T05:30:05.141Z,2.65
2022-11-28T05:32:38.409Z,2.63
2022-11-28T05:35:08.201Z,2.62
2022-11-28T05:37:37.974Z,2.62
2022-11-28T05:40:12.967Z,2.62
2022-11-28T05:42:48.568Z,2.64
2022-11-28T05:45:22.564Z,2.65
2022-11-28T05:47:49.690Z,2.65
2022-11-28T05:50:20.713Z,2.66
2022-11-28T05:52:57.270Z,2.66
2022-11-28T05:55:24.481Z,2.67
2022-11-28T05:57:54.379Z,2.69
2022-11-28T06:00:32.102Z,2.70
2022-11-28T06:03:11.177Z,2.71
2022-11-28T06:05:55.064Z,2.75
2022-11-28T06:09:05.124Z,2.79
2022-11-28T06:11:50.714Z,2.82
2022-11-28T06:14:23.570Z,2.86
2022-11-28T06:17:13.773Z,2.89
2022-11-28T06:19:58.759Z,2.88
2022-11-28T06:22:43.908Z,2.91
2022-11-28T06:25:15.397Z,2.95
2022-11-28T06:27:47.571Z,2.97
2022-11-28T06:30:22.040Z,2.99
2022-11-28T06:32:49.007Z,3.00
2022-11-28T06:35:16.040Z,3.03
2022-11-28T06:37:43.079Z,3.05
2022-11-28T06:40:10.463Z,3.07
2022-11-28T06:42:37.550Z,3.10
2022-11-28T06:45:20.311Z,3.12
2022-11-28T06:47:49.614Z,3.15
2022-11-28T06:50:16.724Z,3.15
2022-11-28T06:52:47.579Z,3.16
2022-11-28T06:55:28.000Z,3.18
2022-11-28T06:57:57.417Z,3.21
2022-11-28T07:00:24.738Z,3.24
2022-11-28T07:02:51.478Z,3.28
2022-11-28T07:05:20.841Z,3.33
2022-11-28T07:07:54.280Z,3.39
2022-11-28T07:10:22.176Z,3.43
2022-11-28T07:12:59.348Z,3.46
2022-11-28T07:15:32.595Z,3.50
2022-11-28T07:18:15.242Z,3.54
2022-11-28T07:20:41.973Z,3.60
2022-11-28T07:23:08.548Z,3.65
2022-11-28T07:25:35.098Z,3.71
2022-11-28T07:28:01.756Z,3.79
2022-11-28T07:30:28.410Z,3.85
2022-11-28T07:32:54.969Z,3.89
2022-11-28T07:35:21.517Z,3.93
2022-11-28T07:37:48.080Z,3.99
2022-11-28T07:40:18.984Z,4.07
2022-11-28T07:42:45.785Z,4.16
2022-11-28T07:45:13.079Z,4.22
2022-11-28T07:47:39.622Z,4.28
2022-11-28T07:50:06.775Z,4.29
2022-11-28T07:52:33.308Z,4.31
2022-11-28T07:54:59.842Z,4.37
2022-11-28T07:57:26.436Z,4.44
2022-11-28T07:59:53.081Z,4.50
2022-11-28T08:02:19.542Z,4.56
2022-11-28T08:04:51.551Z,4.62
2022-11-28T08:07:20.650Z,4.68
2022-11-28T08:09:47.341Z,4.69
2022-11-28T08:12:14.047Z,4.68
2022-11-28T08:14:41.089Z,4.69
2022-11-28T08:17:07.944Z,4.72
2022-11-28T08:19:35.515Z,4.77
2022-11-28T08:22:02.234Z,4.82
2022-11-28T08:24:28.714Z,4.85
2022-11-28T08:26:55.249Z,4.84
2022-11-28T08:29:21.833Z,4.81
2022-11-28T08:31:51.674Z,4.84
2022-11-28T08:34:18.341Z,4.85
2022-11-28T08:36:46.738Z,4.88
2022-11-28T08:39:28.775Z,4.88
2022-11-28T08:41:57.142Z,4.83
2022-11-28T08:44:24.665Z,4.80
2022-11-28T08:46:51.719Z,4.80
2022-11-28T08:49:18.335Z,4.76
2022-11-28T08:51:45.405Z,4.69
2022-11-28T08:54:12.205Z,4.57
2022-11-28T08:56:38.957Z,4.50
2022-11-28T08:59:06.651Z,4.51
2022-11-28T09:01:33.791Z,4.52
2022-11-28T09:04:00.572Z,4.52
2022-11-28T09:06:27.215Z,4.53
2022-11-28T09:08:53.854Z,4.54
2022-11-28T09:11:22.315Z,4.55
2022-11-28T09:13:50.937Z,4.54
2022-11-28T09:16:17.806Z,4.48
2022-11-28T09:18:44.625Z,4.41
2022-11-28T09:21:13.968Z,4.34
2022-11-28T09:24:13.396Z,4.26
2022-11-28T09:26:42.866Z,4.17
2022-11-28T09:29:09.841Z,4.12
2022-11-28T09:31:36.372Z,4.14
2022-11-28T09:34:04.206Z,4.23
2022-11-28T09:36:32.073Z,4.30
2022-11-28T09:39:05.777Z,4.32
2022-11-28T09:42:24.209Z,4.28
2022-11-28T09:44:57.805Z,4.27
2022-11-28T09:47:30.601Z,4.27
2022-11-28T09:50:14.630Z,4.17
2022-11-28T09:53:20.761Z,4.11
2022-11-28T09:55:58.958Z,4.09
2022-11-28T09:58:33.116Z,4.10
2022-11-28T10:01:23.858Z,4.09
2022-11-28T10:04:03.537Z,4.03
2022-11-28T10:06:46.925Z,4.01
2022-11-28T10:09:35.058Z,4.01
2022-11-28T10:12:20.413Z,4.03
2022-11-28T10:14:56.431Z,4.03
2022-11-28T10:17:44.513Z,4.10
2022-11-28T10:20:23.101Z,4.15
2022-11-28T10:22:55.927Z,4.15
2022-11-28T10:25:28.306Z,4.15
2022-11-28T10:27:56.597Z,4.23
2022-11-28T10:30:25.728Z,4.25
2022-11-28T10:33:24.027Z,4.20
2022-11-28T10:35:55.742Z,4.28
2022-11-28T10:38:28.542Z,4.35
2022-11-28T10:41:15.078Z,4.38
2022-11-28T10:43:56.365Z,4.43
2022-11-28T10:46:51.845Z,4.51
2022-11-28T10:49:40.917Z,4.58
2022-11-28T10:52:25.864Z,4.62
2022-11-28T10:55:19.302Z,4.71
2022-11-28T10:57:54.958Z,4.82
2022-11-28T11:00:21.693Z,4.85
2022-11-28T11:02:49.452Z,4.91
2022-11-28T11:05:19.949Z,5.01
2022-11-28T11:07:57.219Z,5.02
2022-11-28T11:10:39.201Z,4.98
2022-11-28T11:13:29.112Z,5.06
2022-11-28T11:16:00.430Z,5.16
2022-11-28T11:18:33.964Z,5.22
2022-11-28T11:21:09.744Z,5.24
2022-11-28T11:23:38.477Z,5.25
2022-11-28T11:26:09.999Z,5.24
2022-11-28T11:28:46.504Z,5.26
2022-11-28T11:31:27.360Z,5.31
2022-11-28T11:34:06.604Z,5.36
2022-11-28T11:36:36.354Z,5.41
2022-11-28T11:39:24.779Z,5.47
2022-11-28T11:42:11.365Z,5.47
2022-11-28T11:44:40.257Z,5.42
2022-11-28T11:47:09.628Z,5.37
2022-11-28T11:49:48.885Z,5.36
2022-11-28T11:52:18.520Z,5.33
2022-11-28T11:54:56.890Z,5.31
2022-11-28T11:57:33.851Z,5.34
2022-11-28T12:00:15.355Z,5.40
2022-11-28T12:02:48.744Z,5.55
2022-11-28T12:05:23.165Z,5.67
2022-11-28T12:07:49.718Z,5.79
2022-11-28T12:10:20.802Z,5.91
2022-11-28T12:12:47.407Z,5.94
2022-11-28T12:15:47.349Z,5.98
2022-11-28T12:18:47.141Z,6.05
2022-11-28T12:21:18.320Z,6.13
2022-11-28T12:23:48.434Z,6.17
2022-11-28T12:26:24.416Z,6.24
2022-11-28T12:28:57.961Z,6.28
2022-11-28T12:31:24.820Z,6.36
2022-11-28T12:34:03.685Z,6.42
2022-11-28T12:36:40.968Z,6.33
2022-11-28T12:39:38.955Z,6.24
2022-11-28T12:42:32.653Z,6.23
2022-11-28T12:45:37.464Z,6.17
2022-11-28T12:48:16.378Z,6.07
2022-11-28T12:50:50.350Z,6.03
2022-11-28T12:53:42.023Z,5.96
2022-11-28T12:56:41.793Z,5.88
2022-11-28T12:59:32.335Z,5.84
2022-11-28T13:02:33.551Z,5.85
2022-11-28T13:05:26.187Z,5.84
2022-11-28T13:08:05.345Z,5.81
2022-11-28T13:10:57.413Z,5.79
2022-11-28T13:13:32.093Z,5.79
2022-11-28T13:16:13.308Z,5.75
2022-11-28T13:18:46.104Z,5.69
2022-11-28T13:21:30.910Z,5.68
2022-11-28T13:24:07.415Z,5.67
2022-11-28T13:26:58.244Z,5.63
2022-11-28T13:29:27.921Z,5.61
2022-11-28T13:32:13.223Z,5.58
2022-11-28T13:34:46.237Z,5.51
2022-11-28T13:40:57.364Z,5.45
2022-11-28T13:43:37.385Z,5.49
2022-11-28T13:46:07.777Z,5.51
2022-11-28T13:51:32.765Z,5.57
2022-11-28T13:54:26.634Z,5.56
2022-11-28T13:57:25.469Z,5.50
2022-11-28T14:00:03.472Z,5.45
2022-11-28T14:02:48.963Z,5.42
2022-11-28T14:05:31.011Z,5.41
2022-11-28T14:07:58.893Z,5.42
2022-11-28T14:10:34.072Z,5.44
2022-11-28T14:13:27.579Z,5.48
2022-11-28T14:16:18.839Z,5.44
2022-11-28T14:19:03.994Z,5.42
2022-11-28T14:21:48.729Z,5.36
2022-11-28T14:24:37.470Z,5.30
2022-11-28T14:27:06.002Z,5.25
2022-11-28T14:29:41.303Z,5.21
2022-11-28T14:32:37.737Z,5.18
2022-11-28T14:35:15.035Z,5.12
2022-11-28T14:37:55.609Z,5.07
2022-11-28T14:40:56.836Z,5.05
2022-11-28T14:43:27.945Z,4.98
2022-11-28T14:46:28.571Z,4.93
2022-11-28T14:48:58.927Z,4.87
2022-11-28T14:51:48.264Z,4.83
2022-11-28T14:54:45.302Z,4.77
2022-11-28T14:57:34.617Z,4.70
2022-11-28T15:00:14.615Z,4.64
2022-11-28T15:03:03.326Z,4.60
2022-11-28T15:05:37.540Z,4.55
2022-11-28T15:08:45.170Z,4.50
2022-11-28T15:11:44.037Z,4.48
2022-11-28T15:14:22.867Z,4.46
2022-11-28T15:16:54.215Z,4.43
2022-11-28T15:19:26.104Z,4.42
2022-11-28T15:21:55.160Z,4.38
2022-11-28T15:24:27.691Z,4.35
2022-11-28T15:27:20.771Z,4.30
2022-11-28T15:30:01.134Z,4.25
2022-11-28T15:32:32.094Z,4.22
2022-11-28T15:35:10.820Z,4.18
2022-11-28T15:37:55.979Z,4.15
2022-11-28T15:40:49.962Z,4.18
2022-11-28T15:43:18.244Z,4.16
2022-11-28T15:45:58.162Z,4.13
2022-11-28T15:51:32.816Z,4.06
2022-11-28T15:54:04.103Z,4.04
2022-11-28T15:56:34.207Z,4.04
2022-11-28T15:59:09.108Z,4.03
2022-11-28T16:01:38.945Z,4.02
2022-11-28T16:04:15.855Z,4.01
2022-11-28T16:06:49.493Z,3.98
2022-11-28T16:09:28.827Z,3.94
2022-11-28T16:15:55.470Z,3.87
2022-11-28T16:18:25.356Z,3.84
2022-11-28T16:21:01.994Z,3.83
2022-11-28T16:23:38.161Z,3.81
2022-11-28T16:26:37.463Z,3.79
2022-11-28T16:29:07.237Z,3.78
2022-11-28T16:31:36.021Z,3.77
2022-11-28T16:34:03.304Z,3.76
2022-11-28T16:36:35.736Z,3.76
2022-11-28T16:39:11.689Z,3.75
2022-11-28T16:41:43.455Z,3.74
2022-11-28T16:44:17.864Z,3.73
2022-11-28T16:46:57.798Z,3.73
2022-11-28T16:50:03.315Z,3.73
2022-11-28T16:52:30.381Z,3.71
2022-11-28T16:54:58.180Z,3.70
2022-11-28T16:57:43.907Z,3.70
2022-11-28T17:00:12.654Z,3.67
2022-11-28T17:02:55.339Z,3.65
2022-11-28T17:05:23.190Z,3.67
2022-11-28T17:07:50.511Z,3.66
2022-11-28T17:10:17.438Z,3.67
2022-11-28T17:12:44.482Z,3.66
2022-11-28T17:15:18.160Z,3.64
2022-11-28T17:17:51.133Z,3.60
2022-11-28T17:20:17.999Z,3.57
2022-11-28T17:22:51.050Z,3.55
2022-11-28T17:25:54.961Z,3.53
2022-11-28T17:29:58.598Z,3.46
2022-11-28T17:32:51.693Z,3.35
2022-11-28T18:10:23.373Z,3.00
2022-11-28T18:12:50.417Z,3.01
2022-11-28T18:15:17.666Z,3.00
2022-11-28T18:17:47.966Z,3.02
2022-11-28T18:20:25.092Z,3.06
2022-11-28T18:23:17.988Z,3.07
2022-11-28T18:25:45.707Z,3.07
2022-11-28T18:29:02.975Z,3.06
2022-11-28T18:31:31.677Z,3.05
2022-11-28T18:34:05.267Z,3.04
2022-11-28T18:36:37.240Z,3.05
2022-11-28T18:39:11.960Z,3.04
2022-11-28T18:42:13.026Z,3.02
2022-11-28T18:44:52.252Z,3.00
2022-11-28T18:47:42.018Z,2.99
2022-11-28T19:43:15.837Z,2.63
2022-11-28T19:45:56.097Z,2.58
2022-11-28T19:48:39.715Z,2.56
2022-11-28T19:51:27.502Z,2.54
2022-11-28T19:54:02.884Z,2.53
2022-11-28T19:56:43.772Z,2.51
2022-11-28T19:59:12.115Z,2.49
2022-11-28T20:02:07.778Z,2.42
2022-11-28T20:04:34.808Z,2.38
2022-11-28T20:07:07.191Z,2.35
2022-11-28T20:09:41.457Z,2.32
2022-11-28T20:12:37.672Z,2.29
2022-11-28T20:15:50.015Z,2.28
2022-11-28T20:18:20.626Z,2.25
2022-11-28T20:20:51.587Z,2.23
2022-11-28T20:23:19.106Z,2.21
2022-11-28T20:25:45.965Z,2.19
2022-11-28T20:28:12.724Z,2.17
2022-11-28T20:30:39.689Z,2.15
2022-11-28T20:33:06.649Z,2.11
2022-11-28T20:38:28.823Z,2.05
2022-11-28T20:41:11.182Z,2.04
2022-11-28T20:43:42.089Z,2.02
2022-11-28T20:46:27.937Z,2.01
2022-11-28T20:48:58.853Z,2.02
2022-11-28T20:51:31.974Z,2.03
2022-11-28T20:53:59.381Z,2.06
2022-11-28T20:56:41.782Z,2.09
2022-11-28T20:59:18.572Z,2.13
2022-11-28T21:01:45.376Z,2.19
2022-11-28T21:04:16.754Z,2.22
2022-11-28T21:06:44.055Z,2.26
2022-11-28T21:09:14.331Z,2.30
2022-11-28T21:12:02.965Z,2.34
2022-11-28T21:14:29.812Z,2.39
2022-11-28T21:17:01.063Z,2.44
2022-11-28T21:19:34.076Z,2.48
2022-11-28T21:22:00.855Z,2.52
2022-11-28T21:24:29.959Z,2.55
2022-11-28T21:26:58.045Z,2.59
2022-11-28T21:29:25.504Z,2.64
2022-11-28T21:31:53.893Z,2.66
2022-11-28T21:34:21.920Z,2.65
2022-11-28T21:36:51.169Z,2.68
2022-11-28T21:39:19.539Z,2.71
2022-11-28T21:41:46.395Z,2.72
2022-11-28T21:44:20.888Z,2.72
2022-11-28T21:46:51.400Z,2.74
2022-11-28T21:49:18.288Z,2.76
2022-11-28T21:51:45.081Z,2.82
2022-11-28T21:54:12.060Z,2.83
2022-11-28T21:56:38.899Z,2.85
2022-11-28T21:59:10.789Z,2.86
2022-11-28T22:01:41.002Z,2.89
2022-11-28T22:04:10.059Z,2.91
2022-11-28T22:06:40.617Z,2.94
2022-11-28T22:09:15.252Z,2.98
2022-11-28T22:11:42.189Z,2.98
2022-11-28T22:14:11.910Z,2.99
2022-11-28T22:16:38.991Z,3.02
2022-11-28T22:19:06.040Z,3.08
2022-11-28T22:21:54.907Z,3.09
2022-11-28T22:24:22.943Z,3.11
2022-11-28T22:26:49.780Z,3.16
2022-11-28T22:29:21.773Z,3.13
2022-11-28T22:31:49.235Z,3.14
2022-11-28T22:34:18.688Z,3.16
2022-11-28T22:36:45.471Z,3.10
2022-11-28T22:39:12.331Z,3.07
2022-11-28T22:41:39.388Z,3.03
2022-11-28T22:44:10.982Z,3.03
2022-11-28T22:46:38.200Z,2.98
2022-11-28T22:49:06.469Z,2.96
2022-11-28T22:51:39.534Z,2.94
2022-11-28T22:54:23.809Z,2.97
2022-11-28T22:56:53.513Z,2.95
2022-11-28T22:59:25.492Z,2.93
2022-11-28T23:01:53.092Z,2.94
2022-11-28T23:04:24.010Z,2.92
2022-11-28T23:06:51.100Z,2.93
2022-11-28T23:09:19.052Z,2.91
2022-11-28T23:11:48.233Z,2.88
2022-11-28T23:14:15.339Z,2.86
2022-11-28T23:16:45.468Z,2.88
2022-11-28T23:19:40.589Z,2.94
2022-11-28T23:26:53.833Z,2.96
2022-11-28T23:29:21.380Z,2.98
2022-11-28T23:31:50.443Z,2.96
2022-11-28T23:34:17.563Z,2.93
2022-11-28T23:37:06.315Z,2.94
2022-11-28T23:40:36.052Z,2.91
2022-11-28T23:42:33.459Z,2.88
2022-11-28T23:45:03.599Z,2.84
2022-11-28T23:47:30.583Z,2.82
2022-11-28T23:49:57.404Z,2.82
2022-11-28T23:52:25.947Z,2.83
2022-11-28T23:54:53.120Z,2.87
